Time;durP1;ratioP1;P1;durP2;ratioP2;P2;SDS_P1;SDS_P2;PMS_P1;PMS_P2;Temp;Humidity;BMP_temperature;BMP_pressure;BME280_temperature;BME280_humidity;BME280_pressure;Samples;Min_cycle;Max_cycle;Signal;HPM_P1;HPM_P2
2022/05/05 00:01:32;;;;;;;;;19.25;17.50;;;;;17.02;91.48;101811.69;5037176;28;46032;-89
2022/05/05 00:03:59;;;;;;;;;17.75;16.50;;;;;16.96;91.81;101806.25;5036132;28;45495;-89
2022/05/05 00:06:25;;;;;;;;;21.75;17.00;;;;;16.90;92.42;101806.00;5037673;28;45780;-87
2022/05/05 00:08:51;;;;;;;;;16.00;16.00;;;;;16.86;92.62;101804.13;5036584;28;45302;-85
2022/05/05 00:16:45;;;;;;;;;18.75;18.25;;;;;16.63;93.51;101813.78;5036619;28;45244;-87
2022/05/05 00:19:10;;;;;;;;;16.25;16.00;;;;;16.56;94.23;101807.44;5035694;28;45285;-88
2022/05/05 00:21:38;;;;;;;;;18.00;15.25;;;;;16.52;94.39;101816.88;5035954;28;45537;-88
2022/05/05 00:24:05;;;;;;;;;16.75;16.00;;;;;16.49;94.75;101810.63;5035411;28;46184;-83
2022/05/05 00:26:31;;;;;;;;;15.50;13.00;;;;;16.44;94.95;101807.88;5017874;28;45902;-83
2022/05/05 00:28:56;;;;;;;;;16.75;15.75;;;;;16.38;96.20;101808.53;5036114;28;45380;-82
2022/05/05 00:31:22;;;;;;;;;17.25;17.00;;;;;16.34;95.86;101801.44;5040692;28;45641;-86
2022/05/05 00:33:48;;;;;;;;;16.50;14.75;;;;;16.33;94.83;101809.19;5036128;28;45373;-87
2022/05/05 00:36:14;;;;;;;;;15.50;13.25;;;;;16.30;94.54;101811.72;5035365;28;45372;-88
2022/05/05 00:38:40;;;;;;;;;16.00;16.00;;;;;16.24;95.62;101808.03;5036023;28;45371;-87
2022/05/05 00:41:05;;;;;;;;;18.00;16.75;;;;;16.21;95.44;101815.72;5017863;28;45191;-87
2022/05/05 00:43:33;;;;;;;;;15.50;13.50;;;;;16.22;94.75;101827.09;5035717;28;45523;-88
2022/05/05 00:45:59;;;;;;;;;17.00;15.25;;;;;16.23;94.00;101816.69;5035328;28;45353;-87
2022/05/05 00:48:28;;;;;;;;;16.00;14.50;;;;;16.17;93.48;101816.47;5035523;28;45473;-87
2022/05/05 00:50:55;;;;;;;;;12.50;12.00;;;;;16.13;93.63;101816.28;5017576;28;45394;-87
2022/05/05 00:53:21;;;;;;;;;16.50;13.50;;;;;16.08;93.58;101821.34;5035383;28;45976;-86
2022/05/05 00:55:52;;;;;;;;;11.50;11.50;;;;;16.02;93.21;101813.25;5035670;28;45249;-87
2022/05/05 00:58:18;;;;;;;;;12.50;10.50;;;;;16.00;93.28;101804.47;5035847;28;45412;-87
2022/05/05 01:00:44;;;;;;;;;14.25;12.75;;;;;15.98;93.17;101819.22;5035476;28;45491;-87
2022/05/05 01:03:12;;;;;;;;;14.75;14.50;;;;;15.92;92.86;101818.13;5034942;28;45975;-83
2022/05/05 01:05:39;;;;;;;;;11.50;11.50;;;;;15.86;92.32;101817.00;5035150;28;45242;-82
2022/05/05 01:08:05;;;;;;;;;12.25;12.00;;;;;15.83;92.50;101816.84;5035229;28;45340;-81
2022/05/05 01:10:32;;;;;;;;;14.00;13.75;;;;;15.75;92.31;101809.59;5039070;28;45498;-82
2022/05/05 01:13:01;;;;;;;;;10.00;9.25;;;;;15.73;92.07;101819.09;5038461;28;45904;-88
2022/05/05 01:15:28;;;;;;;;;12.00;10.75;;;;;15.70;92.26;101819.00;5038555;28;45747;-88
2022/05/05 01:17:54;;;;;;;;;10.75;10.00;;;;;15.69;90.97;101813.69;5038351;28;45185;-87
2022/05/05 01:20:23;;;;;;;;;11.75;11.75;;;;;15.67;91.73;101817.94;5038982;28;45407;-82
2022/05/05 01:22:52;;;;;;;;;9.00;8.50;;;;;15.62;91.52;101821.28;5038855;28;46091;-87
2022/05/05 01:28:14;;;;;;;;;9.00;9.00;;;;;15.52;92.26;101820.81;5038981;28;45170;-88
2022/05/05 01:30:46;;;;;;;;;9.00;8.00;;;;;15.46;92.09;101816.25;5039666;28;45332;-87
2022/05/05 01:33:17;;;;;;;;;9.25;9.25;;;;;15.43;92.46;101819.63;5038379;28;45390;-87
2022/05/05 01:35:46;;;;;;;;;9.25;9.00;;;;;15.40;92.92;101813.41;5038475;28;45443;-88
2022/05/05 01:38:14;;;;;;;;;10.75;9.25;;;;;15.39;92.16;101814.22;5038149;28;45253;-88
2022/05/05 01:40:40;;;;;;;;;7.75;7.75;;;;;15.34;93.31;101811.44;5038574;28;45606;-88
2022/05/05 01:43:09;;;;;;;;;9.50;9.00;;;;;15.31;93.59;101813.91;5037808;28;45433;-88
2022/05/05 01:45:35;;;;;;;;;7.50;7.50;;;;;15.33;94.18;101809.66;5039264;28;45326;-88
2022/05/05 01:48:02;;;;;;;;;11.00;10.00;;;;;15.35;94.72;101812.31;5020682;28;45313;-88
2022/05/05 01:50:31;;;;;;;;;11.50;10.75;;;;;15.30;94.72;101805.19;5038462;28;45209;-88
2022/05/05 01:52:57;;;;;;;;;9.00;9.00;;;;;15.28;95.50;101813.81;5019864;28;46285;-87
2022/05/05 01:55:22;;;;;;;;;10.75;10.75;;;;;15.24;94.91;101806.66;5038027;28;45461;-87
2022/05/05 01:57:49;;;;;;;;;8.25;7.50;;;;;15.28;94.63;101819.03;5038343;28;45333;-87
2022/05/05 02:00:15;;;;;;;;;10.75;10.75;;;;;15.25;94.76;101811.06;5038542;28;45441;-87
2022/05/05 02:02:45;;;;;;;;;11.00;10.50;;;;;15.22;94.96;101816.13;5037791;28;46498;-87
2022/05/05 02:05:11;;;;;;;;;8.25;8.25;;;;;15.21;95.45;101820.47;5038220;28;45877;-88
2022/05/05 02:07:38;;;;;;;;;11.75;10.75;;;;;15.17;96.17;101813.34;5039917;28;45324;-88
2022/05/05 02:10:05;;;;;;;;;10.50;10.00;;;;;15.16;95.48;101820.28;5045268;28;45371;-88
2022/05/05 02:12:32;;;;;;;;;5.75;4.75;;;;;15.10;95.85;101814.78;5027125;28;45297;-88
2022/05/05 02:14:58;;;;;;;;;15.50;11.25;;;;;15.02;96.10;101805.75;5045326;28;46281;-87
2022/05/05 02:17:24;;;;;;;;;14.00;13.50;;;;;15.00;96.38;101810.00;5028912;28;45265;-86
2022/05/05 02:19:50;;;;;;;;;10.75;10.75;;;;;15.01;96.08;101810.06;5036672;28;45344;-84
2022/05/05 02:22:16;;;;;;;;;9.25;9.25;;;;;15.02;97.41;101811.84;5039150;28;45297;-87
2022/05/05 02:24:41;;;;;;;;;11.75;10.00;;;;;15.02;96.01;101806.63;5038338;28;45499;-88
2022/05/05 02:27:08;;;;;;;;;13.25;12.00;;;;;15.05;95.66;101823.25;5040272;28;45411;-86
2022/05/05 02:29:34;;;;;;;;;12.25;11.25;;;;;15.02;95.79;101809.25;5039610;28;45618;-88
2022/05/05 02:32:00;;;;;;;;;14.00;11.50;;;;;14.99;95.51;101813.44;5037516;28;46492;-88
2022/05/05 02:34:26;;;;;;;;;16.75;12.25;;;;;14.98;95.86;101811.66;5038181;28;45190;-88
2022/05/05 02:39:35;;;;;;;;;12.00;11.00;;;;;14.91;96.92;101805.28;5038733;28;45406;-88
2022/05/05 02:42:01;;;;;;;;;10.50;10.00;;;;;14.88;95.94;101802.56;5037210;28;45362;-88
2022/05/05 02:44:27;;;;;;;;;13.25;12.25;;;;;14.86;96.91;101804.22;5037441;28;45264;-87
2022/05/05 02:46:52;;;;;;;;;12.75;12.75;;;;;14.83;97.14;101797.16;5037202;28;45201;-88
2022/05/05 02:49:18;;;;;;;;;14.00;11.75;;;;;14.84;98.04;101809.38;5037866;28;45252;-88
2022/05/05 02:51:45;;;;;;;;;15.75;12.75;;;;;14.82;97.06;101810.09;5036921;28;45641;-88
2022/05/05 02:56:55;;;;;;;;;16.25;14.50;;;;;14.75;99.74;101811.53;5037139;28;45396;-88
2022/05/05 02:59:20;;;;;;;;;15.00;14.00;;;;;14.68;99.96;101801.69;5037554;28;45620;-87
2022/05/05 03:01:46;;;;;;;;;14.75;12.75;;;;;14.64;100.00;101808.44;5037389;28;45284;-86
2022/05/05 03:04:12;;;;;;;;;14.00;12.75;;;;;14.65;100.00;101801.50;5036718;28;45518;-87
2022/05/05 03:06:37;;;;;;;;;12.50;12.50;;;;;14.64;100.00;101804.94;5038457;28;45403;-87
2022/05/05 03:09:03;;;;;;;;;15.50;15.25;;;;;14.64;100.00;101805.84;5048648;28;45389;-87
2022/05/05 03:11:29;;;;;;;;;13.75;12.50;;;;;14.61;100.00;101797.88;5042470;28;45332;-87
2022/05/05 03:13:54;;;;;;;;;18.50;16.00;;;;;14.63;100.00;101805.78;5041189;28;45446;-86
2022/05/05 03:16:20;;;;;;;;;18.50;16.25;;;;;14.60;100.00;101801.31;5041599;28;45120;-85
2022/05/05 03:18:45;;;;;;;;;17.50;13.00;;;;;14.58;100.00;101805.56;5039428;28;45348;-87
2022/05/05 03:21:11;;;;;;;;;13.50;12.25;;;;;14.60;100.00;101808.25;5036593;28;46085;-88
2022/05/05 03:23:37;;;;;;;;;17.75;16.00;;;;;14.58;100.00;101796.88;5036638;28;45315;-87
2022/05/05 03:26:03;;;;;;;;;18.75;13.75;;;;;14.58;100.00;101805.56;5037036;28;45269;-87
2022/05/05 03:28:28;;;;;;;;;13.25;13.00;;;;;14.58;100.00;101808.16;5037367;28;45262;-87
2022/05/05 03:30:54;;;;;;;;;11.75;8.75;;;;;14.55;100.00;101798.50;5036076;28;45704;-87
2022/05/05 03:33:19;;;;;;;;;17.25;14.75;;;;;14.57;100.00;101798.59;5036444;28;46107;-83
2022/05/05 03:35:45;;;;;;;;;16.75;15.00;;;;;14.56;100.00;101802.03;5036862;28;45383;-87
2022/05/05 03:38:11;;;;;;;;;14.00;14.00;;;;;14.59;100.00;101809.94;5036557;28;45409;-86
2022/05/05 03:40:36;;;;;;;;;16.25;14.75;;;;;14.61;100.00;101807.44;5036318;28;45986;-87
2022/05/05 03:43:02;;;;;;;;;18.25;16.00;;;;;14.65;100.00;101820.66;5035966;28;45375;-87
2022/05/05 03:45:28;;;;;;;;;16.50;16.50;;;;;14.69;100.00;101813.91;5037154;28;45331;-87
2022/05/05 03:47:53;;;;;;;;;15.75;15.25;;;;;14.72;100.00;101814.03;5036450;28;45546;-81
2022/05/05 03:50:19;;;;;;;;;14.25;14.00;;;;;14.71;100.00;101807.03;5036296;28;45452;-82
2022/05/05 03:52:44;;;;;;;;;17.50;15.25;;;;;14.70;100.00;101810.47;5018268;28;45324;-81
2022/05/05 03:55:10;;;;;;;;;18.25;14.25;;;;;14.68;100.00;101813.03;5035981;28;45217;-81
2022/05/05 03:57:36;;;;;;;;;14.25;14.25;;;;;14.69;100.00;101812.16;5036263;28;45239;-81
2022/05/05 04:00:03;;;;;;;;;14.75;14.50;;;;;14.70;100.00;101811.34;5035654;28;45996;-81
2022/05/05 04:02:30;;;;;;;;;18.00;15.75;;;;;14.71;100.00;101817.47;5035916;28;45760;-82
2022/05/05 04:04:55;;;;;;;;;15.25;13.75;;;;;14.69;100.00;101822.59;5035797;28;45359;-84
2022/05/05 04:07:22;;;;;;;;;15.75;15.75;;;;;14.65;100.00;101824.97;5036159;28;45417;-85
2022/05/05 04:09:48;;;;;;;;;20.00;16.00;;;;;14.64;100.00;101828.41;5036214;28;46411;-87
2022/05/05 04:12:13;;;;;;;;;19.25;16.00;;;;;14.62;100.00;101825.72;5035660;28;45444;-85
2022/05/05 04:14:39;;;;;;;;;15.75;14.75;;;;;14.66;100.00;101835.47;5035828;28;45486;-86
2022/05/05 04:17:05;;;;;;;;;20.00;16.00;;;;;14.66;100.00;101834.56;5035775;28;45509;-86
2022/05/05 04:19:31;;;;;;;;;14.75;14.25;;;;;14.69;100.00;101838.25;5035580;28;46120;-87
2022/05/05 04:21:56;;;;;;;;;21.25;17.00;;;;;14.66;100.00;101838.09;5035336;28;45303;-87
2022/05/05 04:24:22;;;;;;;;;15.25;15.25;;;;;14.64;100.00;101841.44;5036199;28;45273;-83
2022/05/05 04:26:48;;;;;;;;;17.00;15.00;;;;;14.64;100.00;101833.59;5037164;28;45351;-88
2022/05/05 04:29:14;;;;;;;;;17.50;15.75;;;;;14.65;100.00;101838.00;5035802;28;45407;-86
2022/05/05 04:31:40;;;;;;;;;16.50;15.50;;;;;14.63;100.00;101844.88;5017578;28;45717;-87
2022/05/05 04:34:06;;;;;;;;;20.00;18.75;;;;;14.67;100.00;101846.81;5018987;28;45344;-87
2022/05/05 04:36:35;;;;;;;;;14.50;12.50;;;;;14.66;100.00;101848.50;5035956;28;45403;-86
2022/05/05 04:39:02;;;;;;;;;18.25;15.75;;;;;14.71;100.00;101846.16;5035220;28;46191;-87
2022/05/05 04:41:28;;;;;;;;;15.50;14.75;;;;;14.70;100.00;101847.84;5035502;28;45304;-87
2022/05/05 04:43:54;;;;;;;;;16.00;15.50;;;;;14.64;100.00;101844.94;5037058;28;45830;-85
2022/05/05 04:46:20;;;;;;;;;19.75;18.25;;;;;14.59;100.00;101848.16;5039150;28;45490;-83
2022/05/05 04:48:45;;;;;;;;;19.00;15.75;;;;;14.62;100.00;101850.91;5039207;28;45514;-86
2022/05/05 04:51:11;;;;;;;;;18.00;15.00;;;;;14.63;100.00;101853.59;5038679;28;45461;-85
2022/05/05 04:53:37;;;;;;;;;16.75;16.50;;;;;14.68;100.00;101852.13;5038938;28;45352;-86
2022/05/05 04:56:03;;;;;;;;;17.00;14.75;;;;;14.72;100.00;101853.16;5039063;28;45473;-86
2022/05/05 04:58:28;;;;;;;;;17.00;15.75;;;;;14.73;100.00;101862.75;5037326;28;47771;-87
2022/05/05 05:00:54;;;;;;;;;18.25;16.75;;;;;14.71;100.00;101853.97;5038971;28;45419;-88
2022/05/05 05:03:32;;;;;;;;;20.25;18.75;;;;;14.63;100.00;101855.31;5039493;28;45488;-84
2022/05/05 05:05:58;;;;;;;;;21.75;19.00;;;;;14.64;100.00;101859.66;5040482;28;45284;-81
2022/05/05 05:08:24;;;;;;;;;16.75;16.75;;;;;14.64;100.00;101855.38;5038670;28;45260;-82
2022/05/05 05:10:49;;;;;;;;;21.25;19.25;;;;;14.69;100.00;101861.69;5038715;28;45448;-82
2022/05/05 05:13:15;;;;;;;;;20.25;16.75;;;;;14.72;100.00;101860.97;5038954;28;45414;-82
2022/05/05 05:15:40;;;;;;;;;22.25;20.00;;;;;14.76;100.00;101860.25;5038413;28;45328;-83
2022/05/05 05:18:06;;;;;;;;;24.50;18.25;;;;;14.75;100.00;101858.47;5038084;28;45430;-81
2022/05/05 05:20:32;;;;;;;;;20.50;18.00;;;;;14.74;100.00;101861.91;5038124;28;45339;-81
2022/05/05 05:22:58;;;;;;;;;17.50;15.00;;;;;14.71;100.00;101869.59;5038011;28;45451;-81
2022/05/05 05:25:23;;;;;;;;;23.75;20.50;;;;;14.69;100.00;101876.47;5038345;28;45633;-81
2022/05/05 05:27:49;;;;;;;;;22.25;20.00;;;;;14.74;100.00;101879.28;5038371;28;45324;-81
2022/05/05 05:30:15;;;;;;;;;26.50;21.75;;;;;14.74;100.00;101874.06;5038419;28;45365;-81
2022/05/05 05:32:40;;;;;;;;;22.00;20.50;;;;;14.74;100.00;101874.94;5038066;28;45324;-81
2022/05/05 05:35:06;;;;;;;;;23.00;20.25;;;;;14.76;100.00;101878.50;5038137;28;45238;-82
2022/05/05 05:37:31;;;;;;;;;24.75;23.00;;;;;14.77;100.00;101877.69;5037849;28;45947;-82
2022/05/05 05:39:57;;;;;;;;;26.25;23.00;;;;;14.77;100.00;101884.63;5037711;28;45250;-82
2022/05/05 05:42:23;;;;;;;;;26.00;24.00;;;;;14.79;100.00;101885.59;5038091;28;45162;-83
2022/05/05 05:44:48;;;;;;;;;25.00;20.25;;;;;14.83;100.00;101887.50;5038606;28;45447;-83
2022/05/05 05:47:14;;;;;;;;;24.00;22.00;;;;;14.85;100.00;101884.13;5038049;28;45853;-82
2022/05/05 05:49:39;;;;;;;;;25.00;21.50;;;;;14.92;100.00;101887.91;5038127;28;45275;-82
2022/05/05 05:52:05;;;;;;;;;25.75;20.25;;;;;14.90;100.00;101886.94;5037868;28;45276;-81
2022/05/05 05:54:32;;;;;;;;;25.75;20.50;;;;;14.89;100.00;101890.41;5038320;28;45411;-83
2022/05/05 05:56:57;;;;;;;;;22.50;21.25;;;;;14.94;100.00;101888.88;5037427;28;46086;-82
2022/05/05 05:59:23;;;;;;;;;22.50;22.00;;;;;14.99;100.00;101891.69;5040102;28;45403;-82
2022/05/05 06:04:33;;;;;;;;;24.00;21.25;;;;;15.01;100.00;101900.47;5038116;28;45921;-82
2022/05/05 06:06:59;;;;;;;;;20.50;20.00;;;;;15.03;100.00;101891.00;5037280;28;45335;-84
2022/05/05 06:09:24;;;;;;;;;25.75;22.00;;;;;15.05;100.00;101898.88;5037740;28;45785;-86
2022/05/05 06:11:50;;;;;;;;;25.50;24.00;;;;;15.07;100.00;101897.25;5038311;28;45195;-83
2022/05/05 06:14:16;;;;;;;;;27.25;22.75;;;;;15.10;100.00;101895.66;5039587;28;45724;-87
2022/05/05 06:16:41;;;;;;;;;28.75;24.50;;;;;15.19;100.00;101902.09;5039799;28;45897;-86
2022/05/05 06:19:07;;;;;;;;;27.00;25.00;;;;;15.21;100.00;101903.03;5038811;28;45222;-86
2022/05/05 06:21:33;;;;;;;;;25.75;22.25;;;;;15.21;100.00;101901.34;5038839;28;45341;-88
2022/05/05 06:23:58;;;;;;;;;25.75;23.00;;;;;15.24;100.00;101909.28;5037921;28;45360;-85
2022/05/05 06:26:27;;;;;;;;;24.00;21.50;;;;;15.22;100.00;101904.84;5038964;28;45511;-88
2022/05/05 06:28:54;;;;;;;;;25.50;21.50;;;;;15.24;100.00;101914.50;5050186;28;45359;-88
2022/05/05 06:31:19;;;;;;;;;29.00;25.50;;;;;15.27;100.00;101913.75;5039182;28;45423;-83
2022/05/05 06:33:45;;;;;;;;;27.00;23.00;;;;;15.22;100.00;101903.13;5038416;28;45505;-88
2022/05/05 06:36:11;;;;;;;;;27.25;23.75;;;;;15.24;100.00;101922.34;5037319;28;45535;-88
2022/05/05 06:38:37;;;;;;;;;30.25;28.50;;;;;15.20;100.00;101917.81;5037904;28;45861;-88
2022/05/05 06:41:03;;;;;;;;;27.75;23.50;;;;;15.10;100.00;101910.41;5037536;28;45238;-88
2022/05/05 06:43:29;;;;;;;;;33.50;26.25;;;;;15.07;100.00;101920.72;5039689;28;45518;-83
2022/05/05 06:45:55;;;;;;;;;26.50;24.75;;;;;15.02;100.00;101916.16;5037346;28;46562;-85
2022/05/05 06:48:21;;;;;;;;;29.50;25.50;;;;;15.03;100.00;101919.69;5037179;28;45439;-82
2022/05/05 06:50:46;;;;;;;;;30.25;25.00;;;;;15.06;100.00;101932.88;5037398;28;45476;-83
2022/05/05 06:53:12;;;;;;;;;28.25;25.25;;;;;15.04;100.00;101937.13;5022523;28;45292;-86
2022/05/05 06:55:38;;;;;;;;;27.75;24.25;;;;;15.02;100.00;101937.03;5042831;28;45937;-83
2022/05/05 06:58:03;;;;;;;;;29.50;27.00;;;;;15.04;100.00;101931.91;5036766;28;45280;-82
2022/05/05 07:01:51;;;;;;;;;31.50;27.25;;;;;14.98;100.00;101932.53;5038195;28;45395;-87
2022/05/05 07:03:14;;;;;;;;;26.50;23.25;;;;;15.00;100.00;101941.31;5037345;28;45439;-87
2022/05/05 07:05:40;;;;;;;;;32.25;27.00;;;;;15.04;100.00;101937.13;5036643;28;46617;-87
2022/05/05 07:08:06;;;;;;;;;26.50;24.75;;;;;15.09;100.00;101940.81;5018928;28;45240;-89
2022/05/05 07:13:15;;;;;;;;;27.00;25.50;;;;;15.09;100.00;101946.03;5037308;28;45259;-88
2022/05/05 07:15:41;;;;;;;;;27.25;22.50;;;;;15.12;100.00;101940.03;5018334;28;47243;-87
2022/05/05 07:18:07;;;;;;;;;23.00;20.75;;;;;15.19;100.00;101947.34;5036777;28;45286;-88
2022/05/05 07:20:33;;;;;;;;;27.25;22.50;;;;;15.30;100.00;101947.78;5019399;28;46028;-87
2022/05/05 07:22:59;;;;;;;;;24.00;21.50;;;;;15.40;100.00;101951.72;5038445;28;45286;-88
2022/05/05 07:25:26;;;;;;;;;26.00;24.75;;;;;15.45;100.00;101944.94;5046764;28;45733;-86
2022/05/05 07:27:51;;;;;;;;;26.25;25.00;;;;;15.54;100.00;101954.91;5039295;28;45284;-86
2022/05/05 07:30:17;;;;;;;;;30.50;25.25;;;;;15.59;100.00;101956.88;5058282;28;45294;-89
2022/05/05 07:32:43;;;;;;;;;24.75;23.50;;;;;15.64;100.00;101946.63;5046972;28;45332;-89
2022/05/05 07:35:11;;;;;;;;;27.25;22.25;;;;;15.78;100.00;101952.44;5040340;28;46536;-88
2022/05/05 07:37:38;;;;;;;;;27.00;25.50;;;;;15.82;100.00;101946.53;5022533;28;45328;-89
2022/05/05 07:40:05;;;;;;;;;29.00;27.00;;;;;15.79;100.00;101952.53;5037739;28;45164;-88
2022/05/05 07:42:31;;;;;;;;;29.25;26.25;;;;;15.79;100.00;101946.38;5037303;28;46162;-88
2022/05/05 07:44:57;;;;;;;;;28.25;23.50;;;;;15.81;100.00;101939.50;5037250;28;46077;-87
2022/05/05 07:47:22;;;;;;;;;24.75;22.75;;;;;15.86;100.00;101951.09;5037157;28;45363;-87
2022/05/05 07:49:48;;;;;;;;;24.50;22.50;;;;;15.96;100.00;101951.47;5037207;28;45360;-89
2022/05/05 07:52:14;;;;;;;;;27.00;24.00;;;;;16.01;100.00;101942.09;5036866;28;45353;-89
2022/05/05 07:54:42;;;;;;;;;27.75;25.50;;;;;16.13;100.00;101953.03;5035887;28;46110;-88
2022/05/05 07:57:10;;;;;;;;;27.00;26.00;;;;;16.23;100.00;101957.78;5035796;28;45193;-89
2022/05/05 07:59:36;;;;;;;;;31.25;26.75;;;;;16.25;100.00;101953.53;5039868;28;45432;-89
2022/05/05 08:02:03;;;;;;;;;33.00;30.00;;;;;16.20;100.00;101962.88;5022789;28;45292;-88
2022/05/05 08:04:29;;;;;;;;;26.75;25.25;;;;;16.22;100.00;101966.47;5039287;28;45718;-88
2022/05/05 08:06:55;;;;;;;;;31.75;29.00;;;;;16.18;100.00;101961.06;5038026;28;45491;-88
2022/05/05 08:09:20;;;;;;;;;26.25;23.00;;;;;16.12;100.00;101958.22;5041198;28;45148;-88
2022/05/05 08:11:46;;;;;;;;;28.50;27.00;;;;;16.11;100.00;101956.41;5040162;28;45542;-89
2022/05/05 08:14:12;;;;;;;;;27.00;24.75;;;;;16.09;100.00;101959.84;5036542;28;45333;-88
2022/05/05 08:16:40;;;;;;;;;24.75;23.50;;;;;16.08;100.00;101960.69;5036105;28;45183;-89
2022/05/05 08:19:06;;;;;;;;;25.25;24.75;;;;;16.04;100.00;101958.75;5037534;28;45356;-88
2022/05/05 08:21:33;;;;;;;;;26.75;24.00;;;;;16.08;100.00;101957.19;5039917;28;45550;-86
2022/05/05 08:29:26;;;;;;;;;27.25;25.75;;;;;16.33;100.00;101961.69;5044297;28;45454;-88
2022/05/05 08:31:52;;;;;;;;;26.25;25.25;;;;;16.48;100.00;101966.63;5040558;28;45685;-87
2022/05/05 08:34:19;;;;;;;;;28.00;23.50;;;;;16.67;100.00;101978.69;5039828;28;46110;-89
2022/05/05 08:36:45;;;;;;;;;23.00;21.25;;;;;16.80;100.00;101964.34;5039791;28;45399;-88
2022/05/05 08:39:10;;;;;;;;;25.00;23.00;;;;;16.98;100.00;101968.50;5040230;28;45347;-88
2022/05/05 08:41:40;;;;;;;;;22.00;21.00;;;;;17.11;100.00;101973.34;5039928;28;45348;-87
2022/05/05 08:44:06;;;;;;;;;23.25;22.50;;;;;17.27;100.00;101966.94;5024689;28;47005;-89
2022/05/05 08:46:33;;;;;;;;;18.75;16.00;;;;;17.38;97.57;101962.09;5040800;28;45803;-87
2022/05/05 08:49:04;;;;;;;;;18.25;16.75;;;;;17.48;96.80;101976.41;5040023;28;45449;-88
2022/05/05 08:51:44;;;;;;;;;14.50;13.25;;;;;17.54;93.70;101973.09;5038981;28;45351;-84
2022/05/05 08:54:18;;;;;;;;;22.25;19.50;;;;;17.64;93.32;101975.19;5038501;28;45636;-87
2022/05/05 08:56:48;;;;;;;;;20.50;16.75;;;;;17.66;91.74;101980.47;5040295;28;45310;-87
2022/05/05 08:59:15;;;;;;;;;19.25;14.25;;;;;17.66;92.22;101976.16;5038988;28;45328;-89
2022/05/05 09:01:40;;;;;;;;;16.75;14.75;;;;;17.62;91.03;101975.16;5039255;28;45699;-87
2022/05/05 09:04:07;;;;;;;;;18.00;15.75;;;;;17.61;90.55;101981.22;5020428;28;46789;-85
2022/05/05 09:07:03;;;;;;;;;19.25;19.00;;;;;17.62;90.40;101980.41;5038753;28;45954;-88
2022/05/05 09:09:31;;;;;;;;;18.25;16.25;;;;;17.62;90.07;101980.41;5026062;28;45355;-86
2022/05/05 09:12:12;;;;;;;;;19.50;16.50;;;;;17.60;90.60;101981.19;5038627;28;45549;-83
2022/05/05 09:14:47;;;;;;;;;16.75;14.25;;;;;17.48;89.92;101985.16;5038337;28;45411;-85
2022/05/05 09:17:16;;;;;;;;;18.25;16.00;;;;;17.39;90.13;101983.94;5038418;28;45398;-85
2022/05/05 09:19:54;;;;;;;;;20.00;17.50;;;;;17.36;89.92;101981.19;5021543;28;45254;-87
2022/05/05 09:22:22;;;;;;;;;11.25;10.50;;;;;17.35;88.43;101975.09;5038423;28;45339;-82
2022/05/05 09:24:51;;;;;;;;;13.50;13.50;;;;;17.45;86.62;101981.50;5038782;28;45342;-86
2022/05/05 09:27:23;;;;;;;;;14.00;12.75;;;;;17.52;83.60;101980.91;5038687;28;45753;-87
2022/05/05 09:30:02;;;;;;;;;14.00;13.00;;;;;17.64;83.65;101975.19;5038723;28;45277;-88
2022/05/05 09:32:36;;;;;;;;;14.75;14.25;;;;;17.69;83.71;101980.59;5020884;28;45266;-87
2022/05/05 09:35:15;;;;;;;;;13.75;13.50;;;;;17.75;82.23;101978.19;5037954;28;46306;-87
2022/05/05 09:37:46;;;;;;;;;11.75;11.25;;;;;17.72;82.13;101989.44;5038208;28;45453;-88
2022/05/05 09:40:20;;;;;;;;;15.00;13.75;;;;;17.66;82.08;101983.09;5020120;28;45267;-88
2022/05/05 09:42:50;;;;;;;;;13.25;13.25;;;;;17.62;81.29;101989.97;5038853;28;45375;-88
2022/05/05 09:45:18;;;;;;;;;12.50;10.25;;;;;17.48;81.13;101985.16;5038556;28;46387;-87
2022/05/05 09:47:47;;;;;;;;;11.00;10.50;;;;;17.37;81.45;101977.75;5038821;28;45825;-87
2022/05/05 09:50:14;;;;;;;;;11.00;10.00;;;;;17.31;81.54;101981.94;5041691;28;45210;-82
2022/05/05 09:58:18;;;;;;;;;11.25;8.25;;;;;17.55;79.50;101978.38;5042894;28;45190;-87
2022/05/05 10:06:35;;;;;;;;;11.00;11.00;;;;;17.97;75.82;101978.94;5037690;28;45377;-87
2022/05/05 10:09:13;;;;;;;;;10.75;10.75;;;;;17.90;76.90;101983.94;5039218;28;45427;-89
2022/05/05 10:11:40;;;;;;;;;10.25;10.25;;;;;17.87;76.56;101989.06;5039834;28;45371;-89
2022/05/05 10:14:08;;;;;;;;;13.00;11.25;;;;;17.79;76.41;101980.06;5020672;28;45459;-87
2022/05/05 10:16:36;;;;;;;;;12.00;11.00;;;;;17.76;76.48;101993.09;5039511;28;45287;-90
2022/05/05 10:19:06;;;;;;;;;9.50;9.25;;;;;17.74;75.06;101989.50;5040327;28;45273;-88
2022/05/05 10:21:47;;;;;;;;;7.75;7.75;;;;;17.70;75.39;101992.84;5049048;28;44719;-88
2022/05/05 10:24:27;;;;;;;;;6.50;6.50;;;;;17.62;75.03;101987.34;5044292;28;45419;-88
2022/05/05 10:26:54;;;;;;;;;6.50;6.50;;;;;17.54;74.98;101984.47;5041723;28;45571;-86
2022/05/05 10:29:40;;;;;;;;;6.50;6.50;;;;;17.59;75.34;101992.50;5038656;28;45853;-87
2022/05/05 10:32:19;;;;;;;;;9.50;8.25;;;;;17.73;74.90;101991.22;5039868;28;45428;-89
2022/05/05 10:35:08;;;;;;;;;11.50;9.50;;;;;17.98;74.55;101989.47;5039333;28;45348;-89
2022/05/05 10:37:37;;;;;;;;;12.00;10.25;;;;;18.12;73.66;101983.81;5040917;28;45301;-85
2022/05/05 10:40:08;;;;;;;;;5.00;5.00;;;;;18.17;70.72;101980.50;5051511;28;45331;-87
2022/05/05 10:42:35;;;;;;;;;5.00;4.75;;;;;18.25;69.76;101984.25;5048111;28;44961;-87
2022/05/05 10:45:19;;;;;;;;;5.25;4.75;;;;;18.39;69.55;101970.69;5041258;28;45419;-87
2022/05/05 10:47:58;;;;;;;;;6.75;6.75;;;;;18.64;67.99;101972.31;5021670;28;48017;-88
2022/05/05 10:50:50;;;;;;;;;5.75;5.75;;;;;18.89;68.08;101962.56;5037686;28;45409;-85
2022/05/05 10:53:31;;;;;;;;;5.00;5.00;;;;;18.98;67.14;101961.94;5037405;28;45349;-87
2022/05/05 10:55:58;;;;;;;;;5.75;5.75;;;;;18.94;66.78;101966.22;5037070;28;45396;-86
2022/05/05 10:58:56;;;;;;;;;10.25;6.00;;;;;18.88;65.79;101981.78;5036792;28;46219;-86
2022/05/05 11:01:22;;;;;;;;;7.00;5.50;;;;;18.76;66.21;101963.03;5019181;28;45431;-88
2022/05/05 11:04:07;;;;;;;;;7.00;5.25;;;;;18.66;66.84;101978.50;5019995;28;45894;-89
2022/05/05 11:06:33;;;;;;;;;5.75;5.25;;;;;18.61;67.25;101985.34;5042226;28;45505;-89
2022/05/05 11:08:59;;;;;;;;;5.75;5.75;;;;;18.61;67.54;101976.59;5038411;28;45550;-89
2022/05/05 11:11:40;;;;;;;;;6.75;6.75;;;;;18.66;67.68;101980.22;5043188;28;45281;-87
2022/05/05 11:22:44;;;;;;;;;5.25;4.75;;;;;18.72;66.91;101972.56;5042275;28;45289;-86
2022/05/05 11:25:10;;;;;;;;;6.50;5.75;;;;;18.70;65.96;101971.63;5041060;28;45349;-90
2022/05/05 11:27:36;;;;;;;;;4.75;4.25;;;;;18.76;64.92;101976.16;5039345;28;45513;-88
2022/05/05 11:30:02;;;;;;;;;5.75;5.25;;;;;18.83;64.85;101971.16;5038048;28;45450;-89
2022/05/05 11:32:30;;;;;;;;;4.75;4.00;;;;;18.90;62.46;101964.31;5040031;28;45233;-87
2022/05/05 11:34:56;;;;;;;;;5.50;5.00;;;;;18.87;62.33;101954.63;5038568;28;45363;-90
2022/05/05 11:37:26;;;;;;;;;8.25;6.75;;;;;18.96;63.49;101963.63;5037569;28;45328;-83
2022/05/05 11:39:51;;;;;;;;;4.25;4.25;;;;;19.01;61.02;101976.03;5037144;28;45474;-88
2022/05/05 11:42:18;;;;;;;;;4.00;4.00;;;;;19.01;59.63;101968.16;5038972;28;45395;-85
2022/05/05 11:44:46;;;;;;;;;4.25;4.25;;;;;18.98;60.03;101968.09;5038114;28;45267;-88
2022/05/05 11:47:17;;;;;;;;;5.75;4.50;;;;;18.88;60.87;101956.41;5038922;28;45419;-89
2022/05/05 11:49:48;;;;;;;;;6.25;4.00;;;;;18.85;61.84;101960.69;5036820;28;45296;-88
2022/05/05 11:52:27;;;;;;;;;3.50;3.50;;;;;18.85;61.55;101956.31;5036194;28;45786;-85
2022/05/05 11:54:54;;;;;;;;;5.00;5.00;;;;;18.86;61.01;101963.34;5036249;28;45333;-87
2022/05/05 11:57:38;;;;;;;;;7.00;3.00;;;;;18.78;61.08;101962.22;5037416;28;45166;-85